sensor_id;sensor_type;location;lat;lon;timestamp;P1;durP1;ratioP1;P2;durP2;ratioP2
297;SDS011;133;49.626;9.680;2022-10-20T00:01:31;19.83;;;13.47;;
297;SDS011;133;49.626;9.680;2022-10-20T00:03:56;20.43;;;12.70;;
297;SDS011;133;49.626;9.680;2022-10-20T00:06:26;18.17;;;13.30;;
297;SDS011;133;49.626;9.680;2022-10-20T00:08:53;15.80;;;12.30;;
297;SDS011;133;49.626;9.680;2022-10-20T00:11:20;17.27;;;12.53;;
297;SDS011;133;49.626;9.680;2022-10-20T00:13:49;16.63;;;12.87;;
297;SDS011;133;49.626;9.680;2022-10-20T00:16:16;15.60;;;11.60;;
297;SDS011;133;49.626;9.680;2022-10-20T00:18:43;19.23;;;12.80;;
297;SDS011;133;49.626;9.680;2022-10-20T00:21:11;13.77;;;11.80;;
297;SDS011;133;49.626;9.680;2022-10-20T00:23:41;21.60;;;13.47;;
297;SDS011;133;49.626;9.680;2022-10-20T00:26:09;17.27;;;11.80;;
297;SDS011;133;49.626;9.680;2022-10-20T00:28:37;17.60;;;12.70;;
297;SDS011;133;49.626;9.680;2022-10-20T00:31:03;18.37;;;14.00;;
297;SDS011;133;49.626;9.680;2022-10-20T00:33:29;17.50;;;12.57;;
297;SDS011;133;49.626;9.680;2022-10-20T00:35:57;26.37;;;15.80;;
297;SDS011;133;49.626;9.680;2022-10-20T00:38:24;59.23;;;14.00;;
297;SDS011;133;49.626;9.680;2022-10-20T00:40:49;20.00;;;13.70;;
297;SDS011;133;49.626;9.680;2022-10-20T00:43:15;22.60;;;14.00;;
297;SDS011;133;49.626;9.680;2022-10-20T00:45:42;18.37;;;13.87;;
297;SDS011;133;49.626;9.680;2022-10-20T00:48:15;18.10;;;13.00;;
297;SDS011;133;49.626;9.680;2022-10-20T00:50:49;19.60;;;14.10;;
297;SDS011;133;49.626;9.680;2022-10-20T00:53:19;21.57;;;13.57;;
297;SDS011;133;49.626;9.680;2022-10-20T00:55:47;17.30;;;12.60;;
297;SDS011;133;49.626;9.680;2022-10-20T00:58:15;17.30;;;13.67;;
297;SDS011;133;49.626;9.680;2022-10-20T01:00:42;19.73;;;13.53;;
297;SDS011;133;49.626;9.680;2022-10-20T01:03:12;19.57;;;13.03;;
297;SDS011;133;49.626;9.680;2022-10-20T01:05:41;18.10;;;12.90;;
297;SDS011;133;49.626;9.680;2022-10-20T01:08:06;17.67;;;12.40;;
297;SDS011;133;49.626;9.680;2022-10-20T01:10:35;20.00;;;13.00;;
297;SDS011;133;49.626;9.680;2022-10-20T01:13:07;16.30;;;12.30;;
297;SDS011;133;49.626;9.680;2022-10-20T01:16:02;16.73;;;12.33;;
297;SDS011;133;49.626;9.680;2022-10-20T01:24:09;18.20;;;12.10;;
297;SDS011;133;49.626;9.680;2022-10-20T01:30:16;16.20;;;12.40;;
297;SDS011;133;49.626;9.680;2022-10-20T01:32:51;16.23;;;11.60;;
297;SDS011;133;49.626;9.680;2022-10-20T01:35:26;17.33;;;13.23;;
297;SDS011;133;49.626;9.680;2022-10-20T01:38:36;20.00;;;13.50;;
297;SDS011;133;49.626;9.680;2022-10-20T01:41:16;17.63;;;12.67;;
297;SDS011;133;49.626;9.680;2022-10-20T01:43:47;16.33;;;11.80;;
297;SDS011;133;49.626;9.680;2022-10-20T01:46:14;19.27;;;13.47;;
297;SDS011;133;49.626;9.680;2022-10-20T01:48:43;17.90;;;13.57;;
297;SDS011;133;49.626;9.680;2022-10-20T01:51:11;16.37;;;13.13;;
297;SDS011;133;49.626;9.680;2022-10-20T01:53:37;16.13;;;12.33;;
297;SDS011;133;49.626;9.680;2022-10-20T01:56:02;15.90;;;12.27;;
297;SDS011;133;49.626;9.680;2022-10-20T02:04:13;15.73;;;13.13;;
297;SDS011;133;49.626;9.680;2022-10-20T02:06:41;19.90;;;13.30;;
297;SDS011;133;49.626;9.680;2022-10-20T02:09:09;20.13;;;13.77;;
297;SDS011;133;49.626;9.680;2022-10-20T02:11:45;17.83;;;12.10;;
297;SDS011;133;49.626;9.680;2022-10-20T02:14:16;16.63;;;13.30;;
297;SDS011;133;49.626;9.680;2022-10-20T02:16:48;18.70;;;13.47;;
297;SDS011;133;49.626;9.680;2022-10-20T02:19:17;17.37;;;13.70;;
297;SDS011;133;49.626;9.680;2022-10-20T02:21:46;15.97;;;12.33;;
297;SDS011;133;49.626;9.680;2022-10-20T02:24:14;17.73;;;12.90;;
297;SDS011;133;49.626;9.680;2022-10-20T02:26:42;20.03;;;11.90;;
297;SDS011;133;49.626;9.680;2022-10-20T02:29:11;22.77;;;14.80;;
297;SDS011;133;49.626;9.680;2022-10-20T02:31:39;14.27;;;11.40;;
297;SDS011;133;49.626;9.680;2022-10-20T02:34:06;16.43;;;11.17;;
297;SDS011;133;49.626;9.680;2022-10-20T02:36:35;26.93;;;13.23;;
297;SDS011;133;49.626;9.680;2022-10-20T02:39:02;19.93;;;14.37;;
297;SDS011;133;49.626;9.680;2022-10-20T02:41:28;17.20;;;12.93;;
297;SDS011;133;49.626;9.680;2022-10-20T02:43:55;16.30;;;12.10;;
297;SDS011;133;49.626;9.680;2022-10-20T02:46:21;18.10;;;12.87;;
297;SDS011;133;49.626;9.680;2022-10-20T02:48:46;17.57;;;12.47;;
297;SDS011;133;49.626;9.680;2022-10-20T02:51:12;19.00;;;12.10;;
297;SDS011;133;49.626;9.680;2022-10-20T02:53:38;22.93;;;12.90;;
297;SDS011;133;49.626;9.680;2022-10-20T02:56:04;17.40;;;12.40;;
297;SDS011;133;49.626;9.680;2022-10-20T02:58:30;18.17;;;12.53;;
297;SDS011;133;49.626;9.680;2022-10-20T03:00:55;15.93;;;12.73;;
297;SDS011;133;49.626;9.680;2022-10-20T03:03:21;20.87;;;13.63;;
297;SDS011;133;49.626;9.680;2022-10-20T03:05:47;18.37;;;11.87;;
297;SDS011;133;49.626;9.680;2022-10-20T03:08:13;17.13;;;12.20;;
297;SDS011;133;49.626;9.680;2022-10-20T03:10:39;17.20;;;12.07;;
297;SDS011;133;49.626;9.680;2022-10-20T03:13:05;15.37;;;12.70;;
297;SDS011;133;49.626;9.680;2022-10-20T03:15:31;14.80;;;12.13;;
297;SDS011;133;49.626;9.680;2022-10-20T03:17:57;18.43;;;13.40;;
297;SDS011;133;49.626;9.680;2022-10-20T03:20:23;18.30;;;12.87;;
297;SDS011;133;49.626;9.680;2022-10-20T03:22:48;14.70;;;12.70;;
297;SDS011;133;49.626;9.680;2022-10-20T03:25:14;18.70;;;12.97;;
297;SDS011;133;49.626;9.680;2022-10-20T03:27:40;14.83;;;11.70;;
297;SDS011;133;49.626;9.680;2022-10-20T03:30:06;18.87;;;13.07;;
297;SDS011;133;49.626;9.680;2022-10-20T03:32:32;18.17;;;11.57;;
297;SDS011;133;49.626;9.680;2022-10-20T03:34:57;16.50;;;13.17;;
297;SDS011;133;49.626;9.680;2022-10-20T03:37:23;16.43;;;12.60;;
297;SDS011;133;49.626;9.680;2022-10-20T03:39:49;18.63;;;12.97;;
297;SDS011;133;49.626;9.680;2022-10-20T03:42:14;15.13;;;12.20;;
297;SDS011;133;49.626;9.680;2022-10-20T03:44:40;16.73;;;12.50;;
297;SDS011;133;49.626;9.680;2022-10-20T03:47:08;14.73;;;12.00;;
297;SDS011;133;49.626;9.680;2022-10-20T03:49:35;16.37;;;12.23;;
297;SDS011;133;49.626;9.680;2022-10-20T03:52:01;16.07;;;12.07;;
297;SDS011;133;49.626;9.680;2022-10-20T03:54:26;15.20;;;11.80;;
297;SDS011;133;49.626;9.680;2022-10-20T03:56:52;17.13;;;12.50;;
297;SDS011;133;49.626;9.680;2022-10-20T03:59:18;14.83;;;11.90;;
297;SDS011;133;49.626;9.680;2022-10-20T04:01:43;16.77;;;12.57;;
297;SDS011;133;49.626;9.680;2022-10-20T04:04:10;16.27;;;12.00;;
297;SDS011;133;49.626;9.680;2022-10-20T04:06:36;18.50;;;11.57;;
297;SDS011;133;49.626;9.680;2022-10-20T04:09:02;22.93;;;12.67;;
297;SDS011;133;49.626;9.680;2022-10-20T04:11:28;16.03;;;12.40;;
297;SDS011;133;49.626;9.680;2022-10-20T04:13:54;17.63;;;12.73;;
297;SDS011;133;49.626;9.680;2022-10-20T04:16:20;16.57;;;12.73;;
297;SDS011;133;49.626;9.680;2022-10-20T04:18:46;21.53;;;13.63;;
297;SDS011;133;49.626;9.680;2022-10-20T04:21:11;18.20;;;13.03;;
297;SDS011;133;49.626;9.680;2022-10-20T04:23:37;18.57;;;12.97;;
297;SDS011;133;49.626;9.680;2022-10-20T04:26:13;18.30;;;12.80;;
297;SDS011;133;49.626;9.680;2022-10-20T04:28:39;19.10;;;13.27;;
297;SDS011;133;49.626;9.680;2022-10-20T04:31:05;17.63;;;13.20;;
297;SDS011;133;49.626;9.680;2022-10-20T04:33:32;14.57;;;12.50;;
297;SDS011;133;49.626;9.680;2022-10-20T04:36:02;18.83;;;13.90;;
297;SDS011;133;49.626;9.680;2022-10-20T04:38:29;20.50;;;13.20;;
297;SDS011;133;49.626;9.680;2022-10-20T04:40:56;16.47;;;13.23;;
297;SDS011;133;49.626;9.680;2022-10-20T04:43:23;16.80;;;13.10;;
297;SDS011;133;49.626;9.680;2022-10-20T04:45:49;20.10;;;14.20;;
297;SDS011;133;49.626;9.680;2022-10-20T04:48:14;21.53;;;14.07;;
297;SDS011;133;49.626;9.680;2022-10-20T04:50:40;19.37;;;15.33;;
297;SDS011;133;49.626;9.680;2022-10-20T04:53:06;20.63;;;14.87;;
297;SDS011;133;49.626;9.680;2022-10-20T04:55:32;21.20;;;14.80;;
297;SDS011;133;49.626;9.680;2022-10-20T04:57:58;21.20;;;14.80;;
297;SDS011;133;49.626;9.680;2022-10-20T05:00:23;18.00;;;14.00;;
297;SDS011;133;49.626;9.680;2022-10-20T05:02:49;17.40;;;14.00;;
297;SDS011;133;49.626;9.680;2022-10-20T05:05:15;22.43;;;16.90;;
297;SDS011;133;49.626;9.680;2022-10-20T05:07:40;18.83;;;14.63;;
297;SDS011;133;49.626;9.680;2022-10-20T05:10:06;18.80;;;14.37;;
297;SDS011;133;49.626;9.680;2022-10-20T05:12:32;19.80;;;13.90;;
297;SDS011;133;49.626;9.680;2022-10-20T05:14:57;19.20;;;15.00;;
297;SDS011;133;49.626;9.680;2022-10-20T05:17:23;17.00;;;13.87;;
297;SDS011;133;49.626;9.680;2022-10-20T05:19:49;21.30;;;14.93;;
297;SDS011;133;49.626;9.680;2022-10-20T05:22:14;20.00;;;14.47;;
297;SDS011;133;49.626;9.680;2022-10-20T05:24:40;19.53;;;13.60;;
297;SDS011;133;49.626;9.680;2022-10-20T05:27:05;24.63;;;15.03;;
297;SDS011;133;49.626;9.680;2022-10-20T05:29:31;17.97;;;13.57;;
297;SDS011;133;49.626;9.680;2022-10-20T05:31:57;20.17;;;14.30;;
297;SDS011;133;49.626;9.680;2022-10-20T05:34:22;18.40;;;14.70;;
297;SDS011;133;49.626;9.680;2022-10-20T05:36:48;21.30;;;15.20;;
297;SDS011;133;49.626;9.680;2022-10-20T05:39:16;19.20;;;13.40;;
297;SDS011;133;49.626;9.680;2022-10-20T05:41:41;19.87;;;14.60;;
297;SDS011;133;49.626;9.680;2022-10-20T05:44:07;20.10;;;15.20;;
297;SDS011;133;49.626;9.680;2022-10-20T05:46:33;18.10;;;14.40;;
297;SDS011;133;49.626;9.680;2022-10-20T05:49:02;21.20;;;15.40;;
297;SDS011;133;49.626;9.680;2022-10-20T05:51:29;22.53;;;14.80;;
297;SDS011;133;49.626;9.680;2022-10-20T05:53:56;22.17;;;15.67;;
297;SDS011;133;49.626;9.680;2022-10-20T05:56:23;18.33;;;13.73;;
297;SDS011;133;49.626;9.680;2022-10-20T05:58:49;19.77;;;14.23;;
297;SDS011;133;49.626;9.680;2022-10-20T06:01:17;22.97;;;16.00;;
297;SDS011;133;49.626;9.680;2022-10-20T06:03:48;21.93;;;15.80;;
297;SDS011;133;49.626;9.680;2022-10-20T06:06:16;21.40;;;16.13;;
297;SDS011;133;49.626;9.680;2022-10-20T06:08:43;21.83;;;16.43;;
297;SDS011;133;49.626;9.680;2022-10-20T06:11:09;21.23;;;16.00;;
297;SDS011;133;49.626;9.680;2022-10-20T06:13:35;21.60;;;16.23;;
297;SDS011;133;49.626;9.680;2022-10-20T06:16:02;20.43;;;15.47;;
297;SDS011;133;49.626;9.680;2022-10-20T06:18:32;21.90;;;15.53;;
297;SDS011;133;49.626;9.680;2022-10-20T06:20:59;20.10;;;14.23;;
297;SDS011;133;49.626;9.680;2022-10-20T06:23:26;18.10;;;13.77;;
297;SDS011;133;49.626;9.680;2022-10-20T06:25:52;18.23;;;15.10;;
297;SDS011;133;49.626;9.680;2022-10-20T06:28:17;23.03;;;16.43;;
297;SDS011;133;49.626;9.680;2022-10-20T06:30:43;21.67;;;15.77;;
297;SDS011;133;49.626;9.680;2022-10-20T06:33:09;18.73;;;13.83;;
297;SDS011;133;49.626;9.680;2022-10-20T06:35:36;23.33;;;15.97;;
297;SDS011;133;49.626;9.680;2022-10-20T06:38:02;21.43;;;14.90;;
297;SDS011;133;49.626;9.680;2022-10-20T06:40:28;21.03;;;15.60;;
297;SDS011;133;49.626;9.680;2022-10-20T06:42:53;27.30;;;15.97;;
297;SDS011;133;49.626;9.680;2022-10-20T06:45:19;21.93;;;15.67;;
297;SDS011;133;49.626;9.680;2022-10-20T06:47:44;19.77;;;14.40;;
297;SDS011;133;49.626;9.680;2022-10-20T06:50:10;29.03;;;17.97;;
297;SDS011;133;49.626;9.680;2022-10-20T06:52:36;24.50;;;15.93;;
297;SDS011;133;49.626;9.680;2022-10-20T06:55:01;24.77;;;16.80;;
297;SDS011;133;49.626;9.680;2022-10-20T06:57:29;27.10;;;18.60;;
297;SDS011;133;49.626;9.680;2022-10-20T06:59:56;23.00;;;16.60;;
297;SDS011;133;49.626;9.680;2022-10-20T07:02:21;26.83;;;17.17;;
297;SDS011;133;49.626;9.680;2022-10-20T07:04:48;26.33;;;17.40;;
297;SDS011;133;49.626;9.680;2022-10-20T07:07:14;21.20;;;14.60;;
297;SDS011;133;49.626;9.680;2022-10-20T07:09:39;29.80;;;19.07;;
297;SDS011;133;49.626;9.680;2022-10-20T07:12:05;35.17;;;21.53;;
297;SDS011;133;49.626;9.680;2022-10-20T07:14:30;28.80;;;18.50;;
297;SDS011;133;49.626;9.680;2022-10-20T07:16:56;30.17;;;17.97;;
297;SDS011;133;49.626;9.680;2022-10-20T07:19:22;29.67;;;20.27;;
297;SDS011;133;49.626;9.680;2022-10-20T07:21:47;31.00;;;19.43;;
297;SDS011;133;49.626;9.680;2022-10-20T07:24:13;37.30;;;22.47;;
297;SDS011;133;49.626;9.680;2022-10-20T07:26:40;30.40;;;19.50;;
297;SDS011;133;49.626;9.680;2022-10-20T07:29:06;30.07;;;19.30;;
297;SDS011;133;49.626;9.680;2022-10-20T07:34:02;42.23;;;27.33;;
297;SDS011;133;49.626;9.680;2022-10-20T07:36:29;39.07;;;22.37;;
297;SDS011;133;49.626;9.680;2022-10-20T07:38:58;38.30;;;22.57;;
297;SDS011;133;49.626;9.680;2022-10-20T07:41:25;31.00;;;19.60;;
297;SDS011;133;49.626;9.680;2022-10-20T07:43:52;31.77;;;20.90;;
297;SDS011;133;49.626;9.680;2022-10-20T07:46:18;31.17;;;18.73;;
297;SDS011;133;49.626;9.680;2022-10-20T07:48:44;26.90;;;18.90;;
297;SDS011;133;49.626;9.680;2022-10-20T07:51:22;37.00;;;21.00;;
297;SDS011;133;49.626;9.680;2022-10-20T07:53:54;26.90;;;19.27;;
297;SDS011;133;49.626;9.680;2022-10-20T07:56:34;31.87;;;22.60;;
297;SDS011;133;49.626;9.680;2022-10-20T07:59:02;34.07;;;20.60;;
297;SDS011;133;49.626;9.680;2022-10-20T08:01:28;29.23;;;19.70;;
297;SDS011;133;49.626;9.680;2022-10-20T08:03:54;31.50;;;21.37;;
297;SDS011;133;49.626;9.680;2022-10-20T08:06:19;30.90;;;18.43;;
297;SDS011;133;49.626;9.680;2022-10-20T08:08:45;28.40;;;18.53;;
297;SDS011;133;49.626;9.680;2022-10-20T08:11:11;30.17;;;18.33;;
297;SDS011;133;49.626;9.680;2022-10-20T08:13:37;28.40;;;19.10;;
297;SDS011;133;49.626;9.680;2022-10-20T08:16:05;29.77;;;18.33;;
297;SDS011;133;49.626;9.680;2022-10-20T08:18:31;31.07;;;19.53;;
297;SDS011;133;49.626;9.680;2022-10-20T08:21:07;31.53;;;21.60;;
297;SDS011;133;49.626;9.680;2022-10-20T08:23:41;31.20;;;20.90;;
297;SDS011;133;49.626;9.680;2022-10-20T08:26:08;26.80;;;18.67;;
297;SDS011;133;49.626;9.680;2022-10-20T08:28:34;62.63;;;33.10;;
297;SDS011;133;49.626;9.680;2022-10-20T08:31:00;50.80;;;29.13;;
297;SDS011;133;49.626;9.680;2022-10-20T08:33:28;48.37;;;24.00;;
297;SDS011;133;49.626;9.680;2022-10-20T08:35:53;35.57;;;23.97;;
297;SDS011;133;49.626;9.680;2022-10-20T08:38:19;31.53;;;20.83;;
297;SDS011;133;49.626;9.680;2022-10-20T08:40:44;27.40;;;20.00;;
297;SDS011;133;49.626;9.680;2022-10-20T08:43:12;32.17;;;24.10;;
297;SDS011;133;49.626;9.680;2022-10-20T08:45:42;31.43;;;21.13;;
297;SDS011;133;49.626;9.680;2022-10-20T08:48:11;29.70;;;20.93;;
297;SDS011;133;49.626;9.680;2022-10-20T08:50:43;31.70;;;22.30;;
297;SDS011;133;49.626;9.680;2022-10-20T08:53:10;27.90;;;19.87;;
297;SDS011;133;49.626;9.680;2022-10-20T08:55:37;26.87;;;19.70;;
297;SDS011;133;49.626;9.680;2022-10-20T08:58:06;28.87;;;20.40;;
297;SDS011;133;49.626;9.680;2022-10-20T09:00:40;25.13;;;19.20;;
297;SDS011;133;49.626;9.680;2022-10-20T09:05:39;24.80;;;17.73;;
297;SDS011;133;49.626;9.680;2022-10-20T09:08:07;24.10;;;18.03;;
297;SDS011;133;49.626;9.680;2022-10-20T09:10:47;27.93;;;19.13;;
297;SDS011;133;49.626;9.680;2022-10-20T09:13:17;25.43;;;19.57;;
297;SDS011;133;49.626;9.680;2022-10-20T09:15:44;27.03;;;17.97;;
297;SDS011;133;49.626;9.680;2022-10-20T09:18:12;26.90;;;18.43;;
297;SDS011;133;49.626;9.680;2022-10-20T09:20:41;23.77;;;17.50;;
297;SDS011;133;49.626;9.680;2022-10-20T09:23:18;26.10;;;18.63;;
297;SDS011;133;49.626;9.680;2022-10-20T09:25:47;25.43;;;16.93;;
297;SDS011;133;49.626;9.680;2022-10-20T09:28:24;24.20;;;18.10;;
297;SDS011;133;49.626;9.680;2022-10-20T09:30:52;21.40;;;16.20;;
297;SDS011;133;49.626;9.680;2022-10-20T09:33:24;22.10;;;16.00;;
297;SDS011;133;49.626;9.680;2022-10-20T09:35:59;20.13;;;16.53;;
297;SDS011;133;49.626;9.680;2022-10-20T09:38:31;25.03;;;18.20;;
297;SDS011;133;49.626;9.680;2022-10-20T09:41:06;21.20;;;16.90;;
297;SDS011;133;49.626;9.680;2022-10-20T09:43:34;25.13;;;19.73;;
297;SDS011;133;49.626;9.680;2022-10-20T09:46:12;25.73;;;19.90;;
297;SDS011;133;49.626;9.680;2022-10-20T09:48:46;29.33;;;20.33;;
297;SDS011;133;49.626;9.680;2022-10-20T09:51:17;28.90;;;21.23;;
297;SDS011;133;49.626;9.680;2022-10-20T09:56:33;28.67;;;20.37;;
297;SDS011;133;49.626;9.680;2022-10-20T09:59:05;25.03;;;18.27;;
297;SDS011;133;49.626;9.680;2022-10-20T10:01:50;24.00;;;18.50;;
297;SDS011;133;49.626;9.680;2022-10-20T10:04:34;21.73;;;15.73;;
297;SDS011;133;49.626;9.680;2022-10-20T10:07:02;22.47;;;18.10;;
297;SDS011;133;49.626;9.680;2022-10-20T10:12:23;24.67;;;17.90;;
297;SDS011;133;49.626;9.680;2022-10-20T10:15:02;24.90;;;18.97;;
297;SDS011;133;49.626;9.680;2022-10-20T10:20:00;26.67;;;18.80;;
297;SDS011;133;49.626;9.680;2022-10-20T10:22:32;23.50;;;17.63;;
297;SDS011;133;49.626;9.680;2022-10-20T10:24:59;25.80;;;19.70;;
297;SDS011;133;49.626;9.680;2022-10-20T10:27:27;21.97;;;17.57;;
297;SDS011;133;49.626;9.680;2022-10-20T10:32:55;25.80;;;19.00;;
297;SDS011;133;49.626;9.680;2022-10-20T10:35:26;21.17;;;17.20;;
297;SDS011;133;49.626;9.680;2022-10-20T10:37:57;27.83;;;19.13;;
297;SDS011;133;49.626;9.680;2022-10-20T10:40:31;25.13;;;18.63;;
297;SDS011;133;49.626;9.680;2022-10-20T10:43:09;20.70;;;16.47;;
297;SDS011;133;49.626;9.680;2022-10-20T10:46:06;23.03;;;17.33;;
297;SDS011;133;49.626;9.680;2022-10-20T10:51:51;21.87;;;16.17;;
297;SDS011;133;49.626;9.680;2022-10-20T10:59:59;23.27;;;17.00;;
297;SDS011;133;49.626;9.680;2022-10-20T11:08:17;18.63;;;13.63;;
297;SDS011;133;49.626;9.680;2022-10-20T11:14:17;22.53;;;16.40;;
297;SDS011;133;49.626;9.680;2022-10-20T11:17:15;19.53;;;14.40;;
297;SDS011;133;49.626;9.680;2022-10-20T11:25:28;21.10;;;15.07;;
297;SDS011;133;49.626;9.680;2022-10-20T11:27:58;28.17;;;17.73;;
297;SDS011;133;49.626;9.680;2022-10-20T11:30:24;18.90;;;15.57;;
297;SDS011;133;49.626;9.680;2022-10-20T11:33:00;22.77;;;16.30;;
297;SDS011;133;49.626;9.680;2022-10-20T11:38:40;24.67;;;17.60;;
297;SDS011;133;49.626;9.680;2022-10-20T11:41:42;21.97;;;15.67;;
297;SDS011;133;49.626;9.680;2022-10-20T11:44:07;20.60;;;15.47;;
297;SDS011;133;49.626;9.680;2022-10-20T11:46:46;21.50;;;14.30;;
297;SDS011;133;49.626;9.680;2022-10-20T11:49:16;21.60;;;16.40;;
297;SDS011;133;49.626;9.680;2022-10-20T11:51:47;24.03;;;17.60;;
297;SDS011;133;49.626;9.680;2022-10-20T11:57:04;16.53;;;14.67;;
297;SDS011;133;49.626;9.680;2022-10-20T11:59:41;20.77;;;14.93;;
297;SDS011;133;49.626;9.680;2022-10-20T12:11:09;20.50;;;16.50;;
297;SDS011;133;49.626;9.680;2022-10-20T12:19:23;25.33;;;16.80;;
297;SDS011;133;49.626;9.680;2022-10-20T12:22:36;16.80;;;13.87;;
297;SDS011;133;49.626;9.680;2022-10-20T12:27:20;18.27;;;14.40;;
297;SDS011;133;49.626;9.680;2022-10-20T12:29:57;13.67;;;12.20;;
297;SDS011;133;49.626;9.680;2022-10-20T12:32:52;14.13;;;11.23;;
297;SDS011;133;49.626;9.680;2022-10-20T12:37:43;17.20;;;14.00;;
297;SDS011;133;49.626;9.680;2022-10-20T12:40:47;12.97;;;12.30;;
297;SDS011;133;49.626;9.680;2022-10-20T12:43:22;14.90;;;12.50;;
297;SDS011;133;49.626;9.680;2022-10-20T12:45:58;16.63;;;12.90;;
297;SDS011;133;49.626;9.680;2022-10-20T12:48:30;18.23;;;12.80;;
297;SDS011;133;49.626;9.680;2022-10-20T12:51:01;15.93;;;12.23;;
297;SDS011;133;49.626;9.680;2022-10-20T12:53:31;13.70;;;11.90;;
297;SDS011;133;49.626;9.680;2022-10-20T12:56:07;13.30;;;10.70;;
297;SDS011;133;49.626;9.680;2022-10-20T12:58:39;12.87;;;10.87;;
297;SDS011;133;49.626;9.680;2022-10-20T13:15:36;13.63;;;11.17;;
297;SDS011;133;49.626;9.680;2022-10-20T13:23:38;14.57;;;11.27;;
297;SDS011;133;49.626;9.680;2022-10-20T13:28:47;14.77;;;12.07;;
297;SDS011;133;49.626;9.680;2022-10-20T13:31:16;12.50;;;11.13;;
297;SDS011;133;49.626;9.680;2022-10-20T13:42:46;19.33;;;12.67;;
297;SDS011;133;49.626;9.680;2022-10-20T13:51:03;18.63;;;14.03;;
297;SDS011;133;49.626;9.680;2022-10-20T13:53:38;16.30;;;12.53;;
297;SDS011;133;49.626;9.680;2022-10-20T13:58:57;15.77;;;11.90;;
297;SDS011;133;49.626;9.680;2022-10-20T14:01:53;13.03;;;11.50;;
297;SDS011;133;49.626;9.680;2022-10-20T14:06:53;11.73;;;10.90;;
297;SDS011;133;49.626;9.680;2022-10-20T14:09:20;13.87;;;11.80;;
297;SDS011;133;49.626;9.680;2022-10-20T14:11:49;11.33;;;10.43;;
297;SDS011;133;49.626;9.680;2022-10-20T14:14:23;11.33;;;9.93;;
297;SDS011;133;49.626;9.680;2022-10-20T14:17:00;11.57;;;10.83;;
297;SDS011;133;49.626;9.680;2022-10-20T14:19:28;12.00;;;10.33;;
297;SDS011;133;49.626;9.680;2022-10-20T14:21:56;13.37;;;11.77;;
297;SDS011;133;49.626;9.680;2022-10-20T14:24:33;15.03;;;12.17;;
297;SDS011;133;49.626;9.680;2022-10-20T14:27:02;17.03;;;13.67;;
297;SDS011;133;49.626;9.680;2022-10-20T14:29:32;14.50;;;12.57;;
297;SDS011;133;49.626;9.680;2022-10-20T14:32:01;16.60;;;13.27;;
297;SDS011;133;49.626;9.680;2022-10-20T14:34:33;15.00;;;12.03;;
297;SDS011;133;49.626;9.680;2022-10-20T14:37:00;15.90;;;11.20;;
297;SDS011;133;49.626;9.680;2022-10-20T14:39:34;18.60;;;14.00;;
297;SDS011;133;49.626;9.680;2022-10-20T14:42:04;15.00;;;13.37;;
297;SDS011;133;49.626;9.680;2022-10-20T14:44:52;19.30;;;12.80;;
297;SDS011;133;49.626;9.680;2022-10-20T14:47:21;15.03;;;12.57;;
297;SDS011;133;49.626;9.680;2022-10-20T14:49:49;17.17;;;13.53;;
297;SDS011;133;49.626;9.680;2022-10-20T14:54:48;14.83;;;11.43;;
297;SDS011;133;49.626;9.680;2022-10-20T14:59:53;16.83;;;13.37;;
297;SDS011;133;49.626;9.680;2022-10-20T15:02:31;15.07;;;13.13;;
297;SDS011;133;49.626;9.680;2022-10-20T15:05:19;16.27;;;12.30;;
297;SDS011;133;49.626;9.680;2022-10-20T15:07:45;18.10;;;12.10;;
297;SDS011;133;49.626;9.680;2022-10-20T15:10:15;23.23;;;17.93;;
297;SDS011;133;49.626;9.680;2022-10-20T15:12:46;24.23;;;19.20;;
297;SDS011;133;49.626;9.680;2022-10-20T15:15:18;22.23;;;16.53;;
297;SDS011;133;49.626;9.680;2022-10-20T15:17:46;25.53;;;18.83;;
297;SDS011;133;49.626;9.680;2022-10-20T15:23:18;26.50;;;20.13;;
297;SDS011;133;49.626;9.680;2022-10-20T15:30:59;30.77;;;19.50;;
297;SDS011;133;49.626;9.680;2022-10-20T15:33:26;32.00;;;19.27;;
297;SDS011;133;49.626;9.680;2022-10-20T15:35:52;22.10;;;18.23;;
297;SDS011;133;49.626;9.680;2022-10-20T15:38:18;29.10;;;21.70;;
297;SDS011;133;49.626;9.680;2022-10-20T15:40:44;32.87;;;23.50;;
297;SDS011;133;49.626;9.680;2022-10-20T15:43:14;37.10;;;24.70;;
297;SDS011;133;49.626;9.680;2022-10-20T15:45:46;36.07;;;25.77;;
297;SDS011;133;49.626;9.680;2022-10-20T15:48:17;33.10;;;24.90;;
297;SDS011;133;49.626;9.680;2022-10-20T15:50:43;32.10;;;22.97;;
297;SDS011;133;49.626;9.680;2022-10-20T15:53:09;28.30;;;20.87;;
297;SDS011;133;49.626;9.680;2022-10-20T15:55:37;23.47;;;18.43;;
297;SDS011;133;49.626;9.680;2022-10-20T15:58:05;23.43;;;17.47;;
297;SDS011;133;49.626;9.680;2022-10-20T16:00:31;28.83;;;22.23;;
297;SDS011;133;49.626;9.680;2022-10-20T16:03:04;25.60;;;18.30;;
297;SDS011;133;49.626;9.680;2022-10-20T16:05:32;22.30;;;17.77;;
297;SDS011;133;49.626;9.680;2022-10-20T16:07:58;20.90;;;15.50;;
297;SDS011;133;49.626;9.680;2022-10-20T16:10:24;20.73;;;14.20;;
297;SDS011;133;49.626;9.680;2022-10-20T16:12:54;15.27;;;12.80;;
297;SDS011;133;49.626;9.680;2022-10-20T16:15:20;16.40;;;14.03;;
297;SDS011;133;49.626;9.680;2022-10-20T16:17:46;14.60;;;13.43;;
297;SDS011;133;49.626;9.680;2022-10-20T16:20:11;16.77;;;12.97;;
297;SDS011;133;49.626;9.680;2022-10-20T16:22:37;14.87;;;12.50;;
297;SDS011;133;49.626;9.680;2022-10-20T16:25:03;14.70;;;12.90;;
297;SDS011;133;49.626;9.680;2022-10-20T16:27:30;17.10;;;13.00;;
297;SDS011;133;49.626;9.680;2022-10-20T16:29:57;33.03;;;22.20;;
297;SDS011;133;49.626;9.680;2022-10-20T16:32:24;32.33;;;21.90;;
297;SDS011;133;49.626;9.680;2022-10-20T16:34:50;29.27;;;20.43;;
297;SDS011;133;49.626;9.680;2022-10-20T16:37:16;22.50;;;17.60;;
297;SDS011;133;49.626;9.680;2022-10-20T16:39:41;22.40;;;13.90;;
297;SDS011;133;49.626;9.680;2022-10-20T16:42:07;43.97;;;25.37;;
297;SDS011;133;49.626;9.680;2022-10-20T16:44:33;41.73;;;24.10;;
297;SDS011;133;49.626;9.680;2022-10-20T16:46:58;35.97;;;21.87;;
297;SDS011;133;49.626;9.680;2022-10-20T16:49:29;81.83;;;40.87;;
297;SDS011;133;49.626;9.680;2022-10-20T16:51:57;276.73;;;117.90;;
297;SDS011;133;49.626;9.680;2022-10-20T16:54:24;108.83;;;53.60;;
297;SDS011;133;49.626;9.680;2022-10-20T16:56:50;36.97;;;21.37;;
297;SDS011;133;49.626;9.680;2022-10-20T16:59:16;22.57;;;15.73;;
297;SDS011;133;49.626;9.680;2022-10-20T17:01:41;33.40;;;20.77;;
297;SDS011;133;49.626;9.680;2022-10-20T17:04:07;83.77;;;41.60;;
297;SDS011;133;49.626;9.680;2022-10-20T17:06:35;64.83;;;36.30;;
297;SDS011;133;49.626;9.680;2022-10-20T17:09:01;36.90;;;22.90;;
297;SDS011;133;49.626;9.680;2022-10-20T17:11:28;24.03;;;16.33;;
297;SDS011;133;49.626;9.680;2022-10-20T17:13:55;19.53;;;15.40;;
297;SDS011;133;49.626;9.680;2022-10-20T17:16:25;21.80;;;17.47;;
297;SDS011;133;49.626;9.680;2022-10-20T17:18:53;26.10;;;17.97;;
297;SDS011;133;49.626;9.680;2022-10-20T17:21:19;33.53;;;22.80;;
297;SDS011;133;49.626;9.680;2022-10-20T17:23:45;31.90;;;26.40;;
297;SDS011;133;49.626;9.680;2022-10-20T17:26:14;27.33;;;20.80;;
297;SDS011;133;49.626;9.680;2022-10-20T17:28:48;25.40;;;20.03;;
297;SDS011;133;49.626;9.680;2022-10-20T17:31:17;34.20;;;24.37;;
297;SDS011;133;49.626;9.680;2022-10-20T17:33:43;27.47;;;21.70;;
297;SDS011;133;49.626;9.680;2022-10-20T17:36:09;30.57;;;23.87;;
297;SDS011;133;49.626;9.680;2022-10-20T17:38:36;30.53;;;23.30;;
297;SDS011;133;49.626;9.680;2022-10-20T17:41:09;30.10;;;23.00;;
297;SDS011;133;49.626;9.680;2022-10-20T17:43:37;28.10;;;22.30;;